PWSweather.com
Personal Weather Stations
Station Observations
GLHZ79
SantesFR

SantesFR

Lat: 50.593122, Lon: 2.9570139999999583

Elevation: 72

Station Type: Oregon WMR200

Latest ConditionsUpdated 12:57:00 AM GMT+01:01 Wednesday, Jan 24, 2018
Currently Today's Max Today's Min Today's Average
Temperature 54.5°F12.5°C 54.7°F12.6°C 54.5°F12.5°C 54.6°F12.6°C
Dew Point 53.9°F12.2°C 54.1°F12.3°C 53.9°F12.2°C 54.0°F12.2°C
Winds 1.3 mph SSW2.1 kmh SSW 2.5 mph WSW4.0 kmh WSW - 1.3 mph 2.1 kmh
Wind Gusts 1.3 mph2.1 kmh 4.7 mph7.6 kmh - -
Humidity 98% 98% 98% 98%
Pressure 30.02 in1016.6 mb 30.05 in1017.6 mb 30.02 in1016.6 mb -
Hour Temp Dew Point Humidity Winds Wind Gusts Pressure Precip Precip Rate Daily Precip Total
12:57 AM 54.5°F12.5°C 53.9°F12.2°C 98% 1.3 mph SSW2.1 kmh SSW 1.3 mph2.1 kmh 30.02 in1016.6 mb 0.00 in0.0 mm 0.00 in0.0 mm 0.00 in0.0 mm
12:56 AM 54.5°F12.5°C 53.9°F12.2°C 98% 1.3 mph S2.1 kmh S 2.5 mph4.0 kmh 30.02 in1016.6 mb 0.00 in0.0 mm 0.00 in0.0 mm 0.00 in0.0 mm
12:55 AM 54.5°F12.5°C 53.9°F12.2°C 98% 0.9 mph SSW1.4 kmh SSW 2.5 mph4.0 kmh 30.02 in1016.6 mb 0.00 in0.0 mm 0.00 in0.0 mm 0.00 in0.0 mm
12:54 AM 54.5°F12.5°C 53.9°F12.2°C 98% 0.3 mph SSE0.5 kmh SSE 1.1 mph1.8 kmh 30.02 in1016.6 mb 0.00 in0.0 mm 0.00 in0.0 mm 0.00 in0.0 mm
12:53 AM 54.5°F12.5°C 53.9°F12.2°C 98% 0.3 mph SW0.5 kmh SW 1.3 mph2.1 kmh 30.02 in1016.6 mb 0.00 in0.0 mm 0.00 in0.0 mm 0.00 in0.0 mm
12:52 AM 54.5°F12.5°C 53.9°F12.2°C 98% 1.3 mph S2.1 kmh S 1.3 mph2.1 kmh 30.02 in1016.6 mb 0.00 in0.0 mm 0.00 in0.0 mm 0.00 in0.0 mm
12:51 AM 54.5°F12.5°C 53.9°F12.2°C 98% 0.9 mph SSW1.4 kmh SSW 1.3 mph2.1 kmh 30.02 in1016.6 mb 0.00 in0.0 mm 0.00 in0.0 mm 0.00 in0.0 mm
12:50 AM -5537.2°C -5537.2°C - 0.4 mph S0.6 kmh S 2.7 mph4.3 kmh -338605.1 mb 0.00 in0.0 mm 0.00 in0.0 mm 0.00 in0.0 mm
12:49 AM 54.5°F12.5°C 53.9°F12.2°C 98% Calm Calm 1.6 mph2.6 kmh 30.02 in1016.6 mb 0.00 in0.0 mm 0.00 in0.0 mm 0.00 in0.0 mm
12:48 AM 54.5°F12.5°C 53.9°F12.2°C 98% 0.9 mph S1.4 kmh S 0.9 mph1.4 kmh 30.02 in1016.6 mb 0.00 in0.0 mm 0.00 in0.0 mm 0.00 in0.0 mm
12:47 AM 54.5°F12.5°C 53.9°F12.2°C 98% 1.3 mph SW2.1 kmh SW 1.6 mph2.6 kmh 30.02 in1016.6 mb 0.00 in0.0 mm 0.00 in0.0 mm 0.00 in0.0 mm
12:46 AM 54.5°F12.5°C 53.9°F12.2°C 98% Calm Calm 2.5 mph4.0 kmh 30.02 in1016.6 mb 0.00 in0.0 mm 0.00 in0.0 mm 0.00 in0.0 mm
12:45 AM 54.5°F12.5°C 53.9°F12.2°C 98% Calm Calm -- 30.02 in1016.6 mb 0.00 in0.0 mm 0.00 in0.0 mm 0.00 in0.0 mm
12:44 AM 54.5°F12.5°C 53.9°F12.2°C 98% 1.1 mph S1.8 kmh S 1.3 mph2.1 kmh 30.02 in1016.6 mb 0.00 in0.0 mm 0.00 in0.0 mm 0.00 in0.0 mm
12:43 AM 54.5°F12.5°C 53.9°F12.2°C 98% 1.1 mph SSW1.8 kmh SSW 2.2 mph3.5 kmh 30.02 in1016.6 mb 0.00 in0.0 mm 0.00 in0.0 mm 0.00 in0.0 mm
12:42 AM 54.5°F12.5°C 53.9°F12.2°C 98% 1.1 mph S1.8 kmh S 1.1 mph1.8 kmh 30.02 in1016.6 mb 0.00 in0.0 mm 0.00 in0.0 mm 0.00 in0.0 mm
12:41 AM 54.5°F12.5°C 53.9°F12.2°C 98% Calm Calm 3.1 mph5.0 kmh 30.02 in1016.6 mb 0.00 in0.0 mm 0.00 in0.0 mm 0.00 in0.0 mm
12:40 AM 54.5°F12.5°C 53.9°F12.2°C 98% 1.3 mph S2.1 kmh S 1.3 mph2.1 kmh 30.02 in1016.6 mb 0.00 in0.0 mm 0.00 in0.0 mm 0.00 in0.0 mm
12:39 AM 54.5°F12.5°C 53.9°F12.2°C 98% 1.1 mph S1.8 kmh S 2.9 mph4.7 kmh 30.02 in1016.6 mb 0.00 in0.0 mm 0.00 in0.0 mm 0.00 in0.0 mm
12:38 AM 54.5°F12.5°C 53.9°F12.2°C 98% 1.1 mph SW1.8 kmh SW 2.2 mph3.5 kmh 30.02 in1016.6 mb 0.00 in0.0 mm 0.00 in0.0 mm 0.00 in0.0 mm
12:37 AM 54.6°F12.6°C 54.0°F12.2°C 98% 1.3 mph NW2.1 kmh NW 1.6 mph2.6 kmh 30.02 in1016.6 mb 0.00 in0.0 mm 0.00 in0.0 mm 0.00 in0.0 mm
12:36 AM 54.5°F12.5°C 53.9°F12.2°C 98% 0.5 mph SSW0.8 kmh SSW 4.3 mph6.9 kmh 30.02 in1016.6 mb 0.00 in0.0 mm 0.00 in0.0 mm 0.00 in0.0 mm
12:35 AM -5537.2°C -5537.2°C - 1.3 mph SW2.1 kmh SW 1.3 mph2.1 kmh -338605.1 mb 0.00 in0.0 mm 0.00 in0.0 mm 0.00 in0.0 mm
12:34 AM 54.7°F12.6°C 54.1°F12.3°C 98% 2.5 mph WSW4.0 kmh WSW 2.5 mph4.0 kmh 30.02 in1016.6 mb 0.00 in0.0 mm 0.00 in0.0 mm 0.00 in0.0 mm
12:33 AM 54.5°F12.5°C 53.9°F12.2°C 98% 1.5 mph SW2.4 kmh SW 4.0 mph6.4 kmh 30.02 in1016.6 mb 0.00 in0.0 mm 0.00 in0.0 mm 0.00 in0.0 mm
12:32 AM 54.7°F12.6°C 54.1°F12.3°C 98% 1.9 mph SSW3.1 kmh SSW 2.7 mph4.3 kmh 30.02 in1016.6 mb 0.00 in0.0 mm 0.00 in0.0 mm 0.00 in0.0 mm
12:31 AM 54.5°F12.5°C 53.9°F12.2°C 98% 1.3 mph SW2.1 kmh SW 3.1 mph5.0 kmh 30.02 in1016.6 mb 0.00 in0.0 mm 0.00 in0.0 mm 0.00 in0.0 mm
12:30 AM 54.7°F12.6°C 54.1°F12.3°C 98% 1.5 mph S2.4 kmh S 3.4 mph5.5 kmh 30.02 in1016.6 mb 0.00 in0.0 mm 0.00 in0.0 mm 0.00 in0.0 mm
12:29 AM 54.6°F12.6°C 54.0°F12.2°C 98% 1.7 mph SW2.7 kmh SW 2.5 mph4.0 kmh 30.02 in1016.6 mb 0.00 in0.0 mm 0.00 in0.0 mm 0.00 in0.0 mm
12:28 AM 54.5°F12.5°C 53.9°F12.2°C 98% 1.1 mph S1.8 kmh S 2.7 mph4.3 kmh 30.02 in1016.6 mb 0.00 in0.0 mm 0.00 in0.0 mm 0.00 in0.0 mm
12:27 AM 54.5°F12.5°C 53.9°F12.2°C 98% Calm Calm 0.9 mph1.4 kmh 30.02 in1016.6 mb 0.00 in0.0 mm 0.00 in0.0 mm 0.00 in0.0 mm
12:26 AM 54.5°F12.5°C 53.9°F12.2°C 98% 0.3 mph SSW0.5 kmh SSW 1.1 mph1.8 kmh 30.02 in1016.6 mb 0.00 in0.0 mm 0.00 in0.0 mm 0.00 in0.0 mm
12:25 AM 54.5°F12.5°C 53.9°F12.2°C 98% 1.3 mph S2.1 kmh S 2.0 mph3.2 kmh 30.02 in1016.6 mb 0.00 in0.0 mm 0.00 in0.0 mm 0.00 in0.0 mm
12:24 AM 54.5°F12.5°C 53.9°F12.2°C 98% 2.0 mph S3.2 kmh S 2.0 mph3.2 kmh 30.02 in1016.6 mb 0.00 in0.0 mm 0.00 in0.0 mm 0.00 in0.0 mm
12:23 AM 54.7°F12.6°C 54.1°F12.3°C 98% 1.8 mph S2.9 kmh S 2.7 mph4.3 kmh 30.02 in1016.6 mb 0.00 in0.0 mm 0.00 in0.0 mm 0.00 in0.0 mm
12:22 AM 54.7°F12.6°C 54.1°F12.3°C 98% 1.5 mph SSE2.4 kmh SSE 3.4 mph5.5 kmh 30.02 in1016.6 mb 0.00 in0.0 mm 0.00 in0.0 mm 0.00 in0.0 mm
12:21 AM 54.7°F12.6°C 54.1°F12.3°C 98% 1.7 mph S2.7 kmh S 2.2 mph3.5 kmh 30.02 in1016.6 mb 0.00 in0.0 mm 0.00 in0.0 mm 0.00 in0.0 mm
12:20 AM -5537.2°C -5537.2°C - 0.9 mph SE1.4 kmh SE 2.9 mph4.7 kmh -338605.1 mb 0.00 in0.0 mm 0.00 in0.0 mm 0.00 in0.0 mm
12:19 AM 54.7°F12.6°C 54.1°F12.3°C 98% 1.6 mph S2.6 kmh S 2.9 mph4.7 kmh 30.04 in1017.3 mb 0.00 in0.0 mm 0.00 in0.0 mm 0.00 in0.0 mm
12:18 AM 54.7°F12.6°C 54.1°F12.3°C 98% 2.2 mph WSW3.5 kmh WSW 2.9 mph4.7 kmh 30.05 in1017.6 mb 0.00 in0.0 mm 0.00 in0.0 mm 0.00 in0.0 mm
12:17 AM -5537.2°C -5537.2°C - 2.2 mph SW3.5 kmh SW 3.1 mph5.0 kmh -338605.1 mb 0.00 in0.0 mm 0.00 in0.0 mm 0.00 in0.0 mm
12:16 AM 54.7°F12.6°C 54.1°F12.3°C 98% 2.0 mph S3.2 kmh S 3.6 mph5.8 kmh 30.05 in1017.6 mb 0.00 in0.0 mm 0.00 in0.0 mm 0.00 in0.0 mm
12:11 AM 54.7°F12.6°C 54.1°F12.3°C 98% 2.1 mph WSW3.4 kmh WSW 2.7 mph4.3 kmh 30.05 in1017.6 mb 0.00 in0.0 mm 0.00 in0.0 mm 0.00 in0.0 mm
12:10 AM 54.7°F12.6°C 54.1°F12.3°C 98% 2.0 mph SE3.2 kmh SE 2.9 mph4.7 kmh 30.05 in1017.6 mb 0.00 in0.0 mm 0.00 in0.0 mm 0.00 in0.0 mm
12:09 AM 54.7°F12.6°C 54.1°F12.3°C 98% 0.9 mph SW1.4 kmh SW 2.5 mph4.0 kmh 30.05 in1017.6 mb 0.00 in0.0 mm 0.00 in0.0 mm 0.00 in0.0 mm
12:08 AM 54.7°F12.6°C 54.1°F12.3°C 98% 2.2 mph SW3.5 kmh SW 2.2 mph3.5 kmh 30.05 in1017.6 mb 0.00 in0.0 mm 0.00 in0.0 mm 0.00 in0.0 mm
12:07 AM 54.6°F12.6°C 54.0°F12.2°C 98% 2.0 mph SE3.2 kmh SE 3.4 mph5.5 kmh 30.05 in1017.6 mb 0.00 in0.0 mm 0.00 in0.0 mm 0.00 in0.0 mm
12:06 AM 54.5°F12.5°C 53.9°F12.2°C 98% 1.1 mph SW1.8 kmh SW 3.8 mph6.1 kmh 30.05 in1017.6 mb 0.00 in0.0 mm 0.00 in0.0 mm 0.00 in0.0 mm
12:05 AM -5537.2°C -5537.2°C - 1.3 mph SSW2.1 kmh SSW 1.6 mph2.6 kmh -338605.1 mb 0.00 in0.0 mm 0.00 in0.0 mm 0.00 in0.0 mm
12:04 AM 54.7°F12.6°C 54.1°F12.3°C 98% 1.3 mph SSW2.1 kmh SSW 2.9 mph4.7 kmh 30.05 in1017.6 mb 0.00 in0.0 mm 0.00 in0.0 mm 0.00 in0.0 mm
12:03 AM 54.5°F12.5°C 53.9°F12.2°C 98% 2.2 mph SW3.5 kmh SW 4.7 mph7.6 kmh 30.05 in1017.6 mb 0.00 in0.0 mm 0.00 in0.0 mm 0.00 in0.0 mm
12:02 AM 54.7°F12.6°C 54.1°F12.3°C 98% 1.3 mph S2.1 kmh S 2.5 mph4.0 kmh 30.05 in1017.6 mb 0.00 in0.0 mm 0.00 in0.0 mm 0.00 in0.0 mm
12:01 AM 54.7°F12.6°C 54.1°F12.3°C 98% 1.6 mph SW2.6 kmh SW 2.9 mph4.7 kmh 30.05 in1017.6 mb 0.00 in0.0 mm 0.00 in0.0 mm 0.00 in0.0 mm
12:00 AM 54.5°F12.5°C 53.9°F12.2°C 98% 2.2 mph SW3.5 kmh SW 2.2 mph3.5 kmh 30.05 in1017.6 mb 0.00 in0.0 mm 0.00 in0.0 mm 0.00 in0.0 mm